Terminal Aerodrome Forecast
Issued by NWS Riverton, WY

Home | Current Version | Previous Version | Text Only | Print | Product List | Glossary On
Versions: 1 2 3 4 5 6 7 8 9 10 11 12
000
FTUS45 KRIW 212322
TAFRIW
TAF
KRIW 212322Z 2200/2224 30014G22KT P6SM FEW100 SCT200
     FM220400 25011KT P6SM BKN200
     FM221600 26015G25KT P6SM BKN200
     FM222000 28018G28KT P6SM FEW090 BKN200=

USA.gov is the U.S. government's official web portal to all federal, state and local government web resources and services.